Time;durP1;ratioP1;P1;durP2;ratioP2;P2;SDS_P1;SDS_P2;PMS_P1;PMS_P2;Temp;Humidity;BMP_temperature;BMP_pressure;BME280_temperature;BME280_humidity;BME280_pressure;Samples;Min_cycle;Max_cycle;Signal;HPM_P1;HPM_P2
2023/01/20 00:00:27;;;;;;;2.65;1.20;;;0.60;99.90;;;;;;5072575;28;20032;-71
2023/01/20 00:02:52;;;;;;;3.78;1.30;;;0.60;99.90;;;;;;5072619;28;20072;-71
2023/01/20 00:05:18;;;;;;;2.03;1.30;;;0.60;99.90;;;;;;5072585;28;20417;-71
2023/01/20 00:07:43;;;;;;;2.13;1.00;;;0.60;99.90;;;;;;5072532;28;20040;-71
2023/01/20 00:10:09;;;;;;;2.70;1.35;;;0.50;99.90;;;;;;5072478;28;20047;-71
2023/01/20 00:12:35;;;;;;;3.13;1.90;;;0.50;99.90;;;;;;5072902;28;20076;-72
2023/01/20 00:15:01;;;;;;;2.88;1.48;;;0.50;99.90;;;;;;5072445;28;20040;-70
2023/01/20 00:17:27;;;;;;;4.57;2.10;;;0.50;99.90;;;;;;5072352;28;20090;-71
2023/01/20 00:19:52;;;;;;;2.50;1.67;;;0.60;99.90;;;;;;5072248;28;20044;-71
2023/01/20 00:22:19;;;;;;;2.85;1.80;;;0.60;99.90;;;;;;5072294;28;20040;-71
2023/01/20 00:24:44;;;;;;;5.20;2.00;;;0.50;99.90;;;;;;5072228;28;20048;-70
2023/01/20 00:27:10;;;;;;;4.78;2.40;;;0.60;99.90;;;;;;5072488;28;20051;-71
2023/01/20 00:29:36;;;;;;;3.83;2.78;;;0.60;99.90;;;;;;5072386;28;20049;-71
2023/01/20 00:32:01;;;;;;;5.57;2.78;;;0.60;99.90;;;;;;5072107;28;20119;-71
2023/01/20 00:34:27;;;;;;;5.70;2.97;;;0.70;99.90;;;;;;5072171;28;20079;-71
2023/01/20 00:36:53;;;;;;;3.70;2.70;;;0.70;99.90;;;;;;5072149;28;20089;-71
2023/01/20 00:39:18;;;;;;;5.78;2.40;;;0.70;99.90;;;;;;5072019;28;20455;-71
2023/01/20 00:41:44;;;;;;;4.85;2.85;;;0.60;99.90;;;;;;5072314;28;20080;-71
2023/01/20 00:44:09;;;;;;;4.18;2.38;;;0.80;99.90;;;;;;5071954;28;20044;-71
2023/01/20 00:46:35;;;;;;;5.32;3.03;;;0.80;99.90;;;;;;5072010;28;20070;-71
2023/01/20 00:49:00;;;;;;;8.73;4.00;;;0.80;99.90;;;;;;5072136;28;20053;-71
2023/01/20 00:51:26;;;;;;;6.53;4.90;;;0.90;99.90;;;;;;5072025;28;20056;-71
2023/01/20 00:53:52;;;;;;;7.25;6.05;;;0.80;99.90;;;;;;5071889;28;20503;-71
2023/01/20 00:56:17;;;;;;;14.93;7.88;;;0.80;99.90;;;;;;5071860;28;20094;-71
2023/01/20 00:58:44;;;;;;;12.77;7.57;;;0.80;99.90;;;;;;5071761;28;20029;-70
2023/01/20 01:01:10;;;;;;;12.80;8.15;;;0.80;99.90;;;;;;5072086;28;20094;-70
2023/01/20 01:03:35;;;;;;;14.07;8.95;;;0.80;99.90;;;;;;5071797;28;20040;-71
2023/01/20 01:06:17;;;;;;;15.38;9.82;;;0.80;99.90;;;;;;5071728;28;20037;-71
2023/01/20 01:08:43;;;;;;;18.65;10.05;;;0.80;99.90;;;;;;5072995;28;20041;-70
2023/01/20 01:11:10;;;;;;;15.05;10.27;;;0.90;99.90;;;;;;5071659;28;20082;-70
2023/01/20 01:13:37;;;;;;;16.10;10.23;;;0.80;99.90;;;;;;5071750;28;20032;-71
2023/01/20 01:16:13;;;;;;;17.45;10.82;;;0.80;99.90;;;;;;5071645;28;20417;-70
2023/01/20 01:18:40;;;;;;;20.00;12.63;;;0.90;99.90;;;;;;5071863;28;20438;-70
2023/01/20 01:21:08;;;;;;;21.48;13.18;;;0.80;99.90;;;;;;5071594;28;20516;-71
2023/01/20 01:23:34;;;;;;;26.33;15.25;;;0.90;99.90;;;;;;5072587;28;20041;-71
2023/01/20 01:25:59;;;;;;;21.00;14.02;;;0.80;99.90;;;;;;5075909;28;20094;-71
2023/01/20 01:28:25;;;;;;;24.23;14.95;;;0.80;99.90;;;;;;5075539;28;20520;-70
2023/01/20 01:30:50;;;;;;;21.08;13.40;;;0.90;99.90;;;;;;5075477;28;20119;-71
2023/01/20 01:33:16;;;;;;;22.25;14.27;;;0.90;99.90;;;;;;5075916;28;20037;-70
2023/01/20 01:35:42;;;;;;;24.55;14.80;;;0.80;99.90;;;;;;5075482;28;20041;-71
2023/01/20 01:38:07;;;;;;;18.02;12.90;;;0.90;99.90;;;;;;5075685;28;20047;-71
2023/01/20 01:40:34;;;;;;;19.58;12.57;;;0.80;99.90;;;;;;5075308;28;20501;-71
2023/01/20 01:42:59;;;;;;;17.25;11.70;;;0.90;99.90;;;;;;5075568;28;20048;-70
2023/01/20 01:45:28;;;;;;;16.35;11.95;;;0.90;99.90;;;;;;5075569;28;20527;-70
2023/01/20 01:48:00;;;;;;;17.13;11.30;;;0.90;99.90;;;;;;5075184;28;20045;-71
2023/01/20 01:50:45;;;;;;;14.33;10.33;;;0.90;99.90;;;;;;5075032;28;20043;-71
2023/01/20 01:53:12;;;;;;;17.08;11.57;;;0.90;99.90;;;;;;5075106;28;20076;-71
2023/01/20 01:55:42;;;;;;;12.13;9.63;;;0.90;99.90;;;;;;5075630;28;20050;-71
2023/01/20 01:58:11;;;;;;;14.80;10.98;;;0.80;99.90;;;;;;5075062;28;20078;-71
2023/01/20 02:00:38;;;;;;;15.25;10.85;;;0.90;99.90;;;;;;5075215;28;20540;-71
2023/01/20 02:03:05;;;;;;;16.00;10.65;;;0.90;99.90;;;;;;5058279;28;20040;-71
2023/01/20 02:05:31;;;;;;;17.23;11.48;;;0.90;99.90;;;;;;5074878;28;20036;-71
2023/01/20 02:07:58;;;;;;;16.38;11.40;;;0.80;99.90;;;;;;5074819;28;20524;-71
2023/01/20 02:10:24;;;;;;;14.07;11.15;;;0.90;99.90;;;;;;5075258;28;20063;-71
2023/01/20 02:12:50;;;;;;;17.42;11.52;;;0.80;99.90;;;;;;5074635;28;20049;-71
2023/01/20 02:15:21;;;;;;;18.13;12.43;;;0.80;99.90;;;;;;5074938;28;20059;-70
2023/01/20 02:18:02;;;;;;;17.85;12.40;;;0.80;99.90;;;;;;5074701;28;20040;-70
2023/01/20 02:20:52;;;;;;;21.35;14.45;;;0.90;99.90;;;;;;5074850;28;20505;-70
2023/01/20 02:23:27;;;;;;;21.80;13.80;;;0.80;99.90;;;;;;5074575;28;20044;-70
2023/01/20 02:26:10;;;;;;;21.45;14.13;;;0.70;99.90;;;;;;5074833;28;20055;-71
2023/01/20 02:29:03;;;;;;;19.73;13.93;;;0.80;99.90;;;;;;5074468;28;20037;-70
2023/01/20 02:31:57;;;;;;;24.77;15.23;;;0.70;99.90;;;;;;5074471;28;20045;-70
2023/01/20 02:34:48;;;;;;;19.73;13.88;;;0.80;99.90;;;;;;5074367;28;20495;-71
2023/01/20 02:37:32;;;;;;;23.02;14.30;;;0.70;99.90;;;;;;5074165;28;20048;-71
2023/01/20 02:40:06;;;;;;;19.45;14.32;;;0.80;99.90;;;;;;5074240;28;20409;-71
2023/01/20 02:42:41;;;;;;;17.70;14.02;;;0.80;99.90;;;;;;5074544;28;20405;-71
2023/01/20 02:45:34;;;;;;;20.38;15.15;;;0.70;99.90;;;;;;5074445;28;20123;-71
2023/01/20 02:48:00;;;;;;;19.23;14.30;;;0.70;99.90;;;;;;5074200;28;20048;-71
2023/01/20 02:50:52;;;;;;;21.98;16.00;;;0.70;99.90;;;;;;5074265;28;20048;-71
2023/01/20 02:53:21;;;;;;;25.83;15.57;;;0.70;99.90;;;;;;5074085;28;20040;-71
2023/01/20 02:55:48;;;;;;;19.83;13.82;;;0.70;99.90;;;;;;5073985;28;20029;-71
2023/01/20 02:58:33;;;;;;;19.90;14.45;;;0.70;99.90;;;;;;5057158;28;20044;-71
2023/01/20 03:01:07;;;;;;;19.58;14.55;;;0.60;99.90;;;;;;5074169;28;20401;-71
2023/01/20 03:03:37;;;;;;;21.88;15.75;;;0.60;99.90;;;;;;5073897;28;20044;-70
2023/01/20 03:06:07;;;;;;;19.17;14.82;;;0.60;99.90;;;;;;5075347;28;20144;-71
2023/01/20 03:08:33;;;;;;;21.90;16.02;;;0.70;99.90;;;;;;5073965;28;20040;-71
2023/01/20 03:11:04;;;;;;;22.75;16.08;;;0.60;99.90;;;;;;5073601;28;20056;-71
2023/01/20 03:13:41;;;;;;;23.27;16.05;;;0.70;99.90;;;;;;5073668;28;20037;-71
2023/01/20 03:16:10;;;;;;;24.73;16.27;;;0.70;99.90;;;;;;5073616;28;20036;-70
2023/01/20 03:18:36;;;;;;;23.73;17.55;;;0.60;99.90;;;;;;5073448;28;20046;-70
2023/01/20 03:21:04;;;;;;;28.77;17.70;;;0.70;99.90;;;;;;5073719;28;20040;-71
2023/01/20 03:23:33;;;;;;;27.35;17.60;;;0.60;99.90;;;;;;5056753;28;20502;-70
2023/01/20 03:26:02;;;;;;;25.40;16.77;;;0.70;99.90;;;;;;5073402;28;20036;-71
2023/01/20 03:28:27;;;;;;;26.77;17.73;;;0.70;99.90;;;;;;5073281;28;20171;-71
2023/01/20 03:30:55;;;;;;;34.08;19.20;;;0.60;99.90;;;;;;5073460;28;20139;-71
2023/01/20 03:33:21;;;;;;;28.63;17.90;;;0.60;99.90;;;;;;5056820;28;20028;-71
2023/01/20 03:35:47;;;;;;;27.33;18.08;;;0.60;99.90;;;;;;5073410;28;20498;-71
2023/01/20 03:38:13;;;;;;;29.50;18.02;;;0.60;99.90;;;;;;5073029;28;20044;-70
2023/01/20 03:40:56;;;;;;;30.00;17.67;;;0.70;99.90;;;;;;5073089;28;20116;-71
2023/01/20 03:43:27;;;;;;;25.63;16.45;;;0.70;99.90;;;;;;5073091;28;20111;-71
2023/01/20 03:46:01;;;;;;;24.92;16.17;;;0.60;99.90;;;;;;5073246;28;20063;-71
2023/01/20 03:48:48;;;;;;;26.67;16.80;;;0.60;99.90;;;;;;5072843;28;20044;-70
2023/01/20 03:51:54;;;;;;;31.05;17.35;;;0.50;99.90;;;;;;5072969;28;20048;-71
2023/01/20 03:54:24;;;;;;;28.13;16.92;;;0.50;99.90;;;;;;5042680;28;20041;-71
2023/01/20 03:57:03;;;;;;;30.42;17.25;;;0.60;99.90;;;;;;5072752;28;20128;-71
2023/01/20 03:59:33;;;;;;;28.77;17.17;;;0.50;99.90;;;;;;5072694;28;20041;-71
2023/01/20 04:02:03;;;;;;;28.52;17.38;;;0.50;99.90;;;;;;5072689;28;20058;-71
2023/01/20 04:04:30;;;;;;;29.40;17.35;;;0.50;99.90;;;;;;5072639;28;20098;-71
2023/01/20 04:06:55;;;;;;;27.67;16.88;;;0.50;99.90;;;;;;5072799;28;20044;-71
2023/01/20 04:09:25;;;;;;;26.00;16.05;;;0.60;99.90;;;;;;5072710;28;20447;-71
2023/01/20 04:11:50;;;;;;;27.98;17.33;;;0.60;99.90;;;;;;5072418;28;20054;-70
2023/01/20 04:14:16;;;;;;;26.45;16.65;;;0.60;99.90;;;;;;5072695;28;20036;-71
2023/01/20 04:16:48;;;;;;;27.67;16.33;;;0.50;99.90;;;;;;5072417;28;20496;-71
2023/01/20 04:19:13;;;;;;;28.50;16.73;;;0.50;99.90;;;;;;5072309;28;20115;-70
2023/01/20 04:21:52;;;;;;;26.38;15.68;;;0.50;99.90;;;;;;5072375;28;20128;-71
2023/01/20 04:24:33;;;;;;;25.38;15.52;;;0.60;99.90;;;;;;5072335;28;20045;-71
2023/01/20 04:26:58;;;;;;;26.52;16.08;;;0.60;99.90;;;;;;5072281;28;20132;-71
2023/01/20 04:29:24;;;;;;;23.55;14.57;;;0.60;99.90;;;;;;5072179;28;20119;-71
2023/01/20 04:31:56;;;;;;;24.77;15.15;;;0.60;99.90;;;;;;5072097;28;20114;-71
2023/01/20 04:34:21;;;;;;;25.63;15.63;;;0.70;99.90;;;;;;5072223;28;20089;-71
2023/01/20 04:36:47;;;;;;;24.48;15.38;;;0.70;99.90;;;;;;5072128;28;20037;-71
2023/01/20 04:39:13;;;;;;;27.15;15.55;;;0.70;99.90;;;;;;5071991;28;20420;-70
2023/01/20 04:41:38;;;;;;;25.88;15.48;;;0.70;99.90;;;;;;5072326;28;20052;-71
2023/01/20 04:44:04;;;;;;;29.42;16.27;;;0.60;99.90;;;;;;5071999;28;20048;-71
2023/01/20 04:46:29;;;;;;;25.48;15.38;;;0.60;99.90;;;;;;5071975;28;20036;-71
2023/01/20 04:48:55;;;;;;;26.33;16.08;;;0.60;99.90;;;;;;5072154;28;20058;-70
2023/01/20 04:51:21;;;;;;;27.38;15.57;;;0.60;99.90;;;;;;5071778;28;20542;-70
2023/01/20 04:53:46;;;;;;;28.30;17.45;;;0.60;99.90;;;;;;5073438;28;20036;-71
2023/01/20 04:56:14;;;;;;;26.00;15.50;;;0.60;99.90;;;;;;5071870;28;20045;-71
2023/01/20 04:58:41;;;;;;;25.10;15.90;;;0.60;99.90;;;;;;5071658;28;20036;-71
2023/01/20 05:01:06;;;;;;;28.45;17.50;;;0.70;99.90;;;;;;5071822;28;20378;-71
2023/01/20 05:03:33;;;;;;;27.60;17.10;;;0.60;99.90;;;;;;5071793;28;20094;-71
2023/01/20 05:05:58;;;;;;;26.85;16.95;;;0.60;99.90;;;;;;5071782;28;20076;-71
2023/01/20 05:08:24;;;;;;;27.88;17.20;;;0.70;99.90;;;;;;5071725;28;20041;-70
2023/01/20 05:10:49;;;;;;;27.92;17.70;;;0.70;99.90;;;;;;5071942;28;20051;-71
2023/01/20 05:13:15;;;;;;;28.00;17.40;;;0.50;99.90;;;;;;5071736;28;20401;-71
2023/01/20 05:15:42;;;;;;;30.13;17.90;;;0.50;99.90;;;;;;5071892;28;20085;-70
2023/01/20 05:18:08;;;;;;;27.92;16.77;;;0.50;99.90;;;;;;5071711;28;20041;-71
2023/01/20 05:20:33;;;;;;;28.15;17.10;;;0.60;99.90;;;;;;5071555;28;20041;-71
2023/01/20 05:22:59;;;;;;;27.02;16.15;;;0.60;99.90;;;;;;5071602;28;20083;-71
2023/01/20 05:25:24;;;;;;;27.52;17.23;;;0.70;99.90;;;;;;5071874;28;20041;-71
2023/01/20 05:27:50;;;;;;;28.20;16.80;;;0.60;99.90;;;;;;5071566;28;20525;-70
2023/01/20 05:30:16;;;;;;;29.70;17.40;;;0.60;99.90;;;;;;5071496;28;20058;-71
2023/01/20 05:32:43;;;;;;;26.58;17.08;;;0.70;99.90;;;;;;5071522;28;20094;-71
2023/01/20 05:35:09;;;;;;;24.40;16.45;;;0.60;99.90;;;;;;5071750;28;20085;-71
2023/01/20 05:37:34;;;;;;;25.05;16.50;;;0.60;99.90;;;;;;5071487;28;20116;-71
2023/01/20 05:40:00;;;;;;;26.90;17.58;;;0.60;99.90;;;;;;5071420;28;20040;-71
2023/01/20 05:42:25;;;;;;;27.77;17.10;;;0.60;99.90;;;;;;5072973;28;20036;-70
2023/01/20 05:44:51;;;;;;;25.75;16.58;;;0.70;99.90;;;;;;5071659;28;20495;-70
2023/01/20 05:47:17;;;;;;;28.20;17.40;;;0.60;99.90;;;;;;5071350;28;20040;-71
2023/01/20 05:49:42;;;;;;;29.63;18.27;;;0.70;99.90;;;;;;5071082;28;20115;-71
2023/01/20 05:52:08;;;;;;;25.55;17.33;;;0.60;99.90;;;;;;5071236;28;20059;-71
2023/01/20 05:54:34;;;;;;;26.33;17.42;;;0.70;99.90;;;;;;5071310;28;20037;-71
2023/01/20 05:56:59;;;;;;;26.65;16.98;;;0.60;99.90;;;;;;5071255;28;20043;-71
2023/01/20 05:59:25;;;;;;;27.33;18.02;;;0.70;99.90;;;;;;5071190;28;20068;-70
2023/01/20 06:01:50;;;;;;;29.67;18.25;;;0.70;99.90;;;;;;5071277;28;20048;-71
2023/01/20 06:04:16;;;;;;;31.60;18.60;;;0.70;99.90;;;;;;5071208;28;20047;-71
2023/01/20 06:06:41;;;;;;;27.73;17.95;;;0.70;99.90;;;;;;5071233;28;20093;-71
2023/01/20 06:09:09;;;;;;;30.20;18.17;;;0.70;99.90;;;;;;5071126;28;20071;-70
2023/01/20 06:11:35;;;;;;;28.58;18.08;;;0.80;99.90;;;;;;5073503;28;20036;-71
2023/01/20 06:14:00;;;;;;;30.77;18.42;;;0.80;99.90;;;;;;5074802;28;20043;-71
2023/01/20 06:16:26;;;;;;;32.38;19.85;;;0.80;99.90;;;;;;5074731;28;20039;-70
2023/01/20 06:18:52;;;;;;;29.00;18.63;;;0.80;99.90;;;;;;5074904;28;20032;-71
2023/01/20 06:21:18;;;;;;;33.90;19.33;;;0.70;99.90;;;;;;5074596;28;20493;-71
2023/01/20 06:23:43;;;;;;;30.63;19.33;;;0.80;99.90;;;;;;5074849;28;20044;-71
2023/01/20 06:26:13;;;;;;;35.05;19.88;;;0.80;99.90;;;;;;5074590;28;20511;-71
2023/01/20 06:28:39;;;;;;;32.00;19.52;;;0.70;99.90;;;;;;5074710;28;20036;-70
2023/01/20 06:31:10;;;;;;;34.65;20.20;;;0.80;99.90;;;;;;5074663;28;20040;-72
2023/01/20 06:33:36;;;;;;;32.08;19.70;;;0.80;99.90;;;;;;5074457;28;20115;-71
2023/01/20 06:36:03;;;;;;;29.80;20.05;;;0.70;99.90;;;;;;5074662;28;20032;-71
2023/01/20 06:38:31;;;;;;;34.90;21.15;;;0.80;99.90;;;;;;5074234;28;20464;-70
2023/01/20 06:40:58;;;;;;;34.10;20.00;;;0.80;99.90;;;;;;5074515;28;20041;-71
2023/01/20 06:43:24;;;;;;;35.28;21.02;;;0.80;99.90;;;;;;5074246;28;20044;-71
2023/01/20 06:45:49;;;;;;;35.72;20.60;;;0.80;99.90;;;;;;5074199;28;20097;-70
2023/01/20 06:48:15;;;;;;;33.63;20.58;;;0.80;99.90;;;;;;5074110;28;20083;-70
2023/01/20 06:50:41;;;;;;;30.73;20.25;;;0.80;99.90;;;;;;5073961;28;20043;-70
2023/01/20 06:53:07;;;;;;;37.72;22.60;;;0.80;99.90;;;;;;5073999;28;20069;-70
2023/01/20 06:55:33;;;;;;;34.88;22.05;;;0.90;99.90;;;;;;5074003;28;20048;-71
2023/01/20 06:57:58;;;;;;;33.67;21.83;;;0.80;99.90;;;;;;5073943;28;20116;-71
2023/01/20 07:00:24;;;;;;;38.22;23.75;;;0.80;99.90;;;;;;5073854;28;20495;-70
2023/01/20 07:02:50;;;;;;;34.75;22.05;;;0.90;99.90;;;;;;5057199;28;20037;-70
2023/01/20 07:05:15;;;;;;;35.28;22.48;;;0.80;99.90;;;;;;5073810;28;20043;-71
2023/01/20 07:07:45;;;;;;;39.65;22.55;;;0.80;99.90;;;;;;5073837;28;20127;-71
2023/01/20 07:10:11;;;;;;;33.72;21.55;;;0.90;99.90;;;;;;5073647;28;20043;-70
2023/01/20 07:12:37;;;;;;;35.63;22.42;;;0.80;99.90;;;;;;5073621;28;20044;-71
2023/01/20 07:15:03;;;;;;;37.42;23.42;;;0.90;99.90;;;;;;5073906;28;20047;-70
2023/01/20 07:17:28;;;;;;;36.97;23.05;;;0.90;99.90;;;;;;5073570;28;20508;-71
2023/01/20 07:19:54;;;;;;;34.92;23.00;;;0.90;99.90;;;;;;5074561;28;20068;-70
2023/01/20 07:22:19;;;;;;;37.92;23.05;;;1.00;99.90;;;;;;5073421;28;20052;-70
2023/01/20 07:24:45;;;;;;;37.00;23.10;;;0.90;99.90;;;;;;5073425;28;20047;-71
2023/01/20 07:27:11;;;;;;;39.92;23.80;;;1.00;99.90;;;;;;5073311;28;20040;-71
2023/01/20 07:29:36;;;;;;;34.40;22.77;;;1.00;99.90;;;;;;5073536;28;20036;-70
2023/01/20 07:32:02;;;;;;;35.72;22.02;;;1.00;99.90;;;;;;5073211;28;20497;-71
2023/01/20 07:34:28;;;;;;;37.10;23.55;;;1.00;99.90;;;;;;5057219;28;20082;-70
2023/01/20 07:36:53;;;;;;;36.08;23.20;;;1.00;99.90;;;;;;5073195;28;20082;-71
2023/01/20 07:39:19;;;;;;;35.72;22.90;;;1.00;99.90;;;;;;5073087;28;20097;-70
2023/01/20 07:41:48;;;;;;;36.50;23.63;;;1.00;99.90;;;;;;5073309;28;20044;-70
2023/01/20 07:44:15;;;;;;;36.63;23.42;;;1.00;99.90;;;;;;5073020;28;20043;-70
2023/01/20 07:46:40;;;;;;;39.90;25.10;;;1.00;99.90;;;;;;5073226;28;20378;-71
2023/01/20 07:49:06;;;;;;;41.03;24.40;;;1.00;99.90;;;;;;5072788;28;20524;-70
2023/01/20 07:51:32;;;;;;;39.13;25.67;;;1.00;99.90;;;;;;5072819;28;20040;-71
2023/01/20 07:53:57;;;;;;;41.08;24.80;;;1.00;99.90;;;;;;5072802;28;20127;-70
2023/01/20 07:56:28;;;;;;;37.13;23.85;;;1.10;99.90;;;;;;5073088;28;20041;-71
2023/01/20 07:58:54;;;;;;;37.03;24.27;;;1.10;99.90;;;;;;5072676;28;20045;-70
2023/01/20 08:01:24;;;;;;;41.45;25.98;;;1.00;99.90;;;;;;5072710;28;20044;-71
2023/01/20 08:03:50;;;;;;;42.92;26.38;;;1.00;99.90;;;;;;5056269;28;20044;-71
2023/01/20 08:06:22;;;;;;;40.72;25.65;;;1.10;99.90;;;;;;5072642;28;20036;-71
2023/01/20 08:08:47;;;;;;;40.10;24.67;;;1.20;99.90;;;;;;5072621;28;20075;-70
2023/01/20 08:11:14;;;;;;;42.28;24.35;;;1.00;99.90;;;;;;5072688;28;20080;-70
2023/01/20 08:13:40;;;;;;;43.42;25.45;;;1.00;99.90;;;;;;5072559;28;20040;-70
2023/01/20 08:16:08;;;;;;;39.83;24.10;;;1.10;99.90;;;;;;5056175;28;20106;-70
2023/01/20 08:18:35;;;;;;;41.72;24.33;;;1.00;99.90;;;;;;5072328;28;20047;-70
2023/01/20 08:21:07;;;;;;;42.67;25.10;;;1.10;99.90;;;;;;5072674;28;20036;-71
2023/01/20 08:23:36;;;;;;;40.55;25.08;;;1.10;99.90;;;;;;5072672;28;20127;-71
2023/01/20 08:26:05;;;;;;;41.72;25.23;;;1.10;99.90;;;;;;5072282;28;20078;-70
2023/01/20 08:28:33;;;;;;;41.03;25.70;;;1.10;99.90;;;;;;5072366;28;20036;-70
2023/01/20 08:31:11;;;;;;;39.55;24.20;;;1.10;99.90;;;;;;5072410;28;20035;-71
2023/01/20 08:33:37;;;;;;;40.10;24.77;;;1.10;99.90;;;;;;5072213;28;20040;-71
2023/01/20 08:36:18;;;;;;;40.20;23.95;;;1.10;99.90;;;;;;5072378;28;20066;-70
2023/01/20 08:38:45;;;;;;;39.65;24.75;;;1.30;99.90;;;;;;5072078;28;20127;-70
2023/01/20 08:41:17;;;;;;;40.92;24.60;;;1.20;99.90;;;;;;5072102;28;20075;-70
2023/01/20 08:43:44;;;;;;;40.20;24.77;;;1.30;99.90;;;;;;5072083;28;20043;-70
2023/01/20 08:46:14;;;;;;;39.05;24.15;;;1.30;99.90;;;;;;5072272;28;20041;-71
2023/01/20 08:48:41;;;;;;;41.58;25.63;;;1.30;99.90;;;;;;5071910;28;20558;-70
2023/01/20 08:51:19;;;;;;;41.60;24.77;;;1.20;99.90;;;;;;5071630;28;20501;-71
2023/01/20 08:53:45;;;;;;;42.65;25.20;;;1.30;99.90;;;;;;5072428;28;20050;-71
2023/01/20 08:56:12;;;;;;;42.03;26.00;;;1.30;99.90;;;;;;5071841;28;20135;-70
2023/01/20 08:58:38;;;;;;;44.15;25.38;;;1.20;99.90;;;;;;5055382;28;20468;-70
2023/01/20 09:01:09;;;;;;;44.70;25.83;;;1.20;99.90;;;;;;5072149;28;20113;-71
2023/01/20 09:03:35;;;;;;;42.78;24.63;;;1.30;99.90;;;;;;5071731;28;20032;-70
2023/01/20 09:06:02;;;;;;;46.88;26.33;;;1.20;99.90;;;;;;5072054;28;20043;-71
2023/01/20 09:08:28;;;;;;;47.33;25.77;;;1.30;99.90;;;;;;5071700;28;20050;-70
2023/01/20 09:10:59;;;;;;;46.13;26.77;;;1.30;99.90;;;;;;5072024;28;20037;-70
2023/01/20 09:13:25;;;;;;;43.88;24.98;;;1.30;99.90;;;;;;5055034;28;20041;-71
2023/01/20 09:15:51;;;;;;;49.80;27.30;;;1.30;99.90;;;;;;5071654;28;20043;-70
2023/01/20 09:18:17;;;;;;;48.97;27.38;;;1.40;99.90;;;;;;5071618;28;20044;-70
2023/01/20 09:20:42;;;;;;;48.92;26.50;;;1.30;99.90;;;;;;5071919;28;20048;-70
2023/01/20 09:23:08;;;;;;;49.25;26.88;;;1.40;99.90;;;;;;5071614;28;20037;-70
2023/01/20 09:25:34;;;;;;;50.35;27.70;;;1.40;99.90;;;;;;5071601;28;20049;-70
2023/01/20 09:28:00;;;;;;;48.55;27.35;;;1.40;99.90;;;;;;5071544;28;20059;-70
2023/01/20 09:30:26;;;;;;;45.40;26.27;;;1.40;99.90;;;;;;5071446;28;20390;-70
2023/01/20 09:32:54;;;;;;;50.28;26.05;;;1.40;99.90;;;;;;5071529;28;20048;-70
2023/01/20 09:35:19;;;;;;;51.83;26.48;;;1.40;99.90;;;;;;5071519;28;20036;-70
2023/01/20 09:46:28;;;;;;;42.53;21.92;;;1.50;99.90;;;;;;5075194;28;20049;-70
2023/01/20 09:54:59;;;;;;;44.42;23.85;;;1.50;99.90;;;;;;5075478;28;20103;-70
2023/01/20 09:57:29;;;;;;;45.95;25.52;;;1.50;99.90;;;;;;5075127;28;20515;-71
2023/01/20 10:00:04;;;;;;;44.45;24.60;;;1.50;99.90;;;;;;5075040;28;20504;-70
2023/01/20 10:02:34;;;;;;;41.15;23.80;;;1.50;99.90;;;;;;5058275;28;20405;-70
2023/01/20 10:05:17;;;;;;;44.78;24.65;;;1.50;99.90;;;;;;5075026;28;20051;-71
2023/01/20 10:08:09;;;;;;;41.87;23.67;;;1.50;99.90;;;;;;5074958;28;20041;-71
2023/01/20 10:10:42;;;;;;;46.60;24.05;;;1.60;99.90;;;;;;5052104;28;20095;-70
2023/01/20 10:13:22;;;;;;;42.80;24.50;;;1.60;99.90;;;;;;5058114;28;20044;-70
2023/01/20 10:15:55;;;;;;;41.47;23.38;;;1.70;99.90;;;;;;5074806;28;20058;-70
2023/01/20 10:18:37;;;;;;;45.92;25.13;;;1.60;99.90;;;;;;5074647;28;20497;-70
2023/01/20 10:21:16;;;;;;;40.58;22.80;;;1.70;99.90;;;;;;5074709;28;20055;-70
2023/01/20 10:23:47;;;;;;;38.83;21.48;;;1.70;99.90;;;;;;5075789;28;20063;-70
2023/01/20 10:26:23;;;;;;;38.42;21.80;;;1.70;99.90;;;;;;5074623;28;20040;-70
2023/01/20 10:28:59;;;;;;;43.00;22.20;;;1.70;99.90;;;;;;5074473;28;20167;-70
2023/01/20 10:31:28;;;;;;;44.00;23.88;;;1.80;99.90;;;;;;5074666;28;20140;-71
2023/01/20 10:34:05;;;;;;;45.35;24.42;;;1.70;99.90;;;;;;5074436;28;20047;-70
2023/01/20 10:36:33;;;;;;;41.90;22.40;;;1.80;99.90;;;;;;5074704;28;20033;-71
2023/01/20 10:39:08;;;;;;;45.83;24.05;;;1.70;99.90;;;;;;5074252;28;20489;-70
2023/01/20 10:41:53;;;;;;;46.38;24.58;;;1.70;99.90;;;;;;5074907;28;20151;-71
2023/01/20 10:44:20;;;;;;;41.50;22.70;;;1.80;99.90;;;;;;5057593;28;20520;-70
2023/01/20 10:47:13;;;;;;;39.03;22.27;;;1.70;99.90;;;;;;5057558;28;20055;-70
2023/01/20 10:49:51;;;;;;;38.35;22.10;;;1.80;99.90;;;;;;5057358;28;20076;-70
2023/01/20 10:52:36;;;;;;;41.92;22.15;;;1.70;99.90;;;;;;5074021;28;20055;-71
2023/01/20 10:55:10;;;;;;;41.67;21.33;;;1.80;99.90;;;;;;5074080;28;20036;-70
2023/01/20 10:57:37;;;;;;;37.58;21.60;;;1.70;99.90;;;;;;5073334;28;20032;-71
2023/01/20 11:00:06;;;;;;;42.33;23.80;;;1.70;99.90;;;;;;5074133;28;20044;-70
2023/01/20 11:02:36;;;;;;;39.50;22.83;;;1.70;99.90;;;;;;5073923;28;20037;-71
2023/01/20 11:05:23;;;;;;;38.35;21.48;;;1.70;99.90;;;;;;5073889;28;20086;-71
2023/01/20 11:07:50;;;;;;;40.10;21.63;;;1.70;99.90;;;;;;5073853;28;20080;-71
2023/01/20 11:10:25;;;;;;;40.67;21.50;;;1.70;99.90;;;;;;5073681;28;20123;-70
2023/01/20 11:12:56;;;;;;;36.03;20.98;;;1.80;99.90;;;;;;5073729;28;20047;-70
2023/01/20 11:15:27;;;;;;;36.78;22.30;;;1.70;99.90;;;;;;5073685;28;20032;-70
2023/01/20 11:18:14;;;;;;;35.92;21.58;;;1.80;99.90;;;;;;5073652;28;20040;-70
2023/01/20 11:20:51;;;;;;;39.38;21.60;;;1.80;99.90;;;;;;5073542;28;20044;-70
2023/01/20 11:23:37;;;;;;;40.78;21.33;;;1.70;99.90;;;;;;5073817;28;20132;-70
2023/01/20 11:26:16;;;;;;;38.63;21.35;;;1.80;99.90;;;;;;5073765;28;20505;-70
2023/01/20 11:28:50;;;;;;;35.25;20.73;;;1.80;99.90;;;;;;5074639;28;20485;-70
2023/01/20 11:31:17;;;;;;;39.35;21.55;;;1.80;99.90;;;;;;5073768;28;20145;-70
2023/01/20 11:34:19;;;;;;;38.25;22.45;;;1.90;99.90;;;;;;5073336;28;20044;-70
2023/01/20 11:36:45;;;;;;;37.05;21.33;;;1.90;99.90;;;;;;5065015;28;20044;-71
2023/01/20 11:39:29;;;;;;;37.15;20.05;;;1.90;99.90;;;;;;5056485;28;20036;-70
2023/01/20 11:42:16;;;;;;;37.58;21.25;;;1.90;99.90;;;;;;5073409;28;20051;-70
2023/01/20 11:44:46;;;;;;;38.45;20.98;;;1.90;99.90;;;;;;5056422;28;20048;-71
2023/01/20 11:47:29;;;;;;;39.55;21.30;;;1.90;99.90;;;;;;5056319;28;20044;-70
2023/01/20 11:50:23;;;;;;;44.83;22.30;;;1.90;99.90;;;;;;5072732;28;20439;-71
2023/01/20 11:52:49;;;;;;;35.60;20.75;;;1.90;99.90;;;;;;5057024;28;20299;-71
2023/01/20 11:55:23;;;;;;;37.13;21.42;;;1.90;99.90;;;;;;5072900;28;20085;-70
2023/01/20 11:57:57;;;;;;;40.13;22.27;;;1.90;99.90;;;;;;5073059;28;20485;-71
2023/01/20 12:00:38;;;;;;;40.78;22.38;;;1.90;99.90;;;;;;5072701;28;20048;-70
2023/01/20 12:03:09;;;;;;;35.28;22.08;;;1.90;99.90;;;;;;5072778;28;20037;-71
2023/01/20 12:05:47;;;;;;;40.35;23.17;;;1.90;99.90;;;;;;5072597;28;20079;-70
2023/01/20 12:08:32;;;;;;;36.47;20.77;;;1.90;99.90;;;;;;5071578;28;20421;-70
2023/01/20 12:11:01;;;;;;;40.88;22.27;;;1.90;99.90;;;;;;5072879;28;20115;-71
2023/01/20 12:16:26;;;;;;;38.10;21.90;;;1.90;99.90;;;;;;5072497;28;20052;-70
2023/01/20 12:18:56;;;;;;;39.15;21.92;;;1.90;99.90;;;;;;5072610;28;20044;-70
2023/01/20 12:21:28;;;;;;;39.17;21.90;;;1.90;99.90;;;;;;5055698;28;20516;-70
2023/01/20 12:24:27;;;;;;;42.03;22.00;;;1.90;99.90;;;;;;5072372;28;20135;-70
2023/01/20 12:26:52;;;;;;;39.70;22.17;;;1.90;99.90;;;;;;5072281;28;20127;-70
2023/01/20 12:29:33;;;;;;;37.97;21.20;;;2.00;99.90;;;;;;5072182;28;20131;-70
2023/01/20 12:31:59;;;;;;;38.63;22.40;;;2.00;99.90;;;;;;5072129;28;20493;-70
2023/01/20 12:34:30;;;;;;;36.00;20.92;;;2.00;99.90;;;;;;5072423;28;20072;-70
2023/01/20 12:37:02;;;;;;;36.30;21.73;;;2.00;99.90;;;;;;5073213;28;20110;-71
2023/01/20 12:39:46;;;;;;;36.70;21.25;;;2.00;99.90;;;;;;5072053;28;20094;-70
2023/01/20 12:42:46;;;;;;;36.50;21.27;;;2.00;99.90;;;;;;5072087;28;20044;-71
2023/01/20 12:45:24;;;;;;;36.13;21.38;;;1.90;99.90;;;;;;5071440;28;20067;-70
2023/01/20 12:48:12;;;;;;;31.75;19.60;;;1.90;99.90;;;;;;5072086;28;20127;-71
2023/01/20 12:50:37;;;;;;;38.47;21.55;;;1.90;99.90;;;;;;5071905;28;20048;-71
2023/01/20 12:53:42;;;;;;;35.70;20.42;;;1.80;99.90;;;;;;5071902;28;20051;-71
2023/01/20 12:56:26;;;;;;;35.33;21.08;;;1.80;99.90;;;;;;5072007;28;20125;-71
2023/01/20 12:59:25;;;;;;;37.53;22.40;;;1.90;99.90;;;;;;5072031;28;20561;-70
2023/01/20 13:02:00;;;;;;;37.55;20.95;;;1.90;99.90;;;;;;5072198;28;20044;-70
2023/01/20 13:05:16;;;;;;;39.55;20.58;;;1.90;99.90;;;;;;5071924;28;20037;-71
2023/01/20 13:08:35;;;;;;;41.55;22.65;;;1.90;99.90;;;;;;4998026;28;20041;-71
2023/01/20 13:11:14;;;;;;;39.67;21.35;;;2.00;99.90;;;;;;4956047;28;20046;-71
2023/01/20 13:14:13;;;;;;;35.78;20.95;;;2.00;99.90;;;;;;5064350;28;20083;-71